sensor_id;sensor_type;location;lat;lon;timestamp;temperature;humidity
10492;DHT22;5293;51.464;-2.566;2023-07-28T00:01:08;17.80;99.90
10492;DHT22;5293;51.464;-2.566;2023-07-28T00:03:33;17.80;99.90
10492;DHT22;5293;51.464;-2.566;2023-07-28T00:05:59;17.80;99.90
10492;DHT22;5293;51.464;-2.566;2023-07-28T00:08:24;17.90;99.90
10492;DHT22;5293;51.464;-2.566;2023-07-28T00:10:50;17.90;99.90
10492;DHT22;5293;51.464;-2.566;2023-07-28T00:13:16;17.90;99.90
10492;DHT22;5293;51.464;-2.566;2023-07-28T00:15:41;17.90;99.90
10492;DHT22;5293;51.464;-2.566;2023-07-28T00:18:07;17.90;99.90
10492;DHT22;5293;51.464;-2.566;2023-07-28T00:20:33;17.90;99.90
10492;DHT22;5293;51.464;-2.566;2023-07-28T00:22:58;17.90;99.90
10492;DHT22;5293;51.464;-2.566;2023-07-28T00:25:24;17.90;99.90
10492;DHT22;5293;51.464;-2.566;2023-07-28T00:27:50;17.90;99.90
10492;DHT22;5293;51.464;-2.566;2023-07-28T00:30:16;17.90;99.90
10492;DHT22;5293;51.464;-2.566;2023-07-28T00:32:41;18.00;99.90
10492;DHT22;5293;51.464;-2.566;2023-07-28T00:35:07;18.00;99.90
10492;DHT22;5293;51.464;-2.566;2023-07-28T00:37:33;18.00;99.90
10492;DHT22;5293;51.464;-2.566;2023-07-28T00:39:59;18.00;99.90
10492;DHT22;5293;51.464;-2.566;2023-07-28T00:42:24;18.00;99.90
10492;DHT22;5293;51.464;-2.566;2023-07-28T00:44:50;18.10;99.90
10492;DHT22;5293;51.464;-2.566;2023-07-28T00:47:16;18.10;99.90
10492;DHT22;5293;51.464;-2.566;2023-07-28T00:49:41;18.00;99.90
10492;DHT22;5293;51.464;-2.566;2023-07-28T00:52:08;18.00;99.90
10492;DHT22;5293;51.464;-2.566;2023-07-28T00:54:34;17.90;99.90
10492;DHT22;5293;51.464;-2.566;2023-07-28T00:57:01;17.90;99.90
10492;DHT22;5293;51.464;-2.566;2023-07-28T00:59:27;17.90;99.90
10492;DHT22;5293;51.464;-2.566;2023-07-28T01:01:52;17.90;99.90
10492;DHT22;5293;51.464;-2.566;2023-07-28T01:04:18;17.90;99.90
10492;DHT22;5293;51.464;-2.566;2023-07-28T01:06:53;17.90;99.90
10492;DHT22;5293;51.464;-2.566;2023-07-28T01:09:24;17.90;99.90
10492;DHT22;5293;51.464;-2.566;2023-07-28T01:11:56;17.80;99.90
10492;DHT22;5293;51.464;-2.566;2023-07-28T01:14:22;17.80;99.90
10492;DHT22;5293;51.464;-2.566;2023-07-28T01:16:48;17.70;99.90
10492;DHT22;5293;51.464;-2.566;2023-07-28T01:19:16;17.70;99.90
10492;DHT22;5293;51.464;-2.566;2023-07-28T01:21:53;17.80;99.90
10492;DHT22;5293;51.464;-2.566;2023-07-28T01:24:40;17.90;99.90
10492;DHT22;5293;51.464;-2.566;2023-07-28T01:27:08;17.90;99.90
10492;DHT22;5293;51.464;-2.566;2023-07-28T01:29:35;17.90;99.90
10492;DHT22;5293;51.464;-2.566;2023-07-28T01:32:01;17.90;99.90
10492;DHT22;5293;51.464;-2.566;2023-07-28T01:34:26;17.90;99.90
10492;DHT22;5293;51.464;-2.566;2023-07-28T01:36:52;17.90;99.90
10492;DHT22;5293;51.464;-2.566;2023-07-28T01:39:18;17.90;99.90
10492;DHT22;5293;51.464;-2.566;2023-07-28T01:41:43;17.90;99.90
10492;DHT22;5293;51.464;-2.566;2023-07-28T01:44:10;18.00;99.90
10492;DHT22;5293;51.464;-2.566;2023-07-28T01:46:36;17.90;99.90
10492;DHT22;5293;51.464;-2.566;2023-07-28T01:49:01;17.90;99.90
10492;DHT22;5293;51.464;-2.566;2023-07-28T01:51:27;17.90;99.90
10492;DHT22;5293;51.464;-2.566;2023-07-28T01:53:53;17.90;99.90
10492;DHT22;5293;51.464;-2.566;2023-07-28T01:56:18;17.80;99.90
10492;DHT22;5293;51.464;-2.566;2023-07-28T01:58:44;17.70;99.90
10492;DHT22;5293;51.464;-2.566;2023-07-28T02:01:12;17.70;99.90
10492;DHT22;5293;51.464;-2.566;2023-07-28T02:03:38;17.80;99.90
10492;DHT22;5293;51.464;-2.566;2023-07-28T02:06:04;17.80;99.90
10492;DHT22;5293;51.464;-2.566;2023-07-28T02:08:29;17.80;99.90
10492;DHT22;5293;51.464;-2.566;2023-07-28T02:10:55;17.80;99.90
10492;DHT22;5293;51.464;-2.566;2023-07-28T02:13:21;17.80;99.90
10492;DHT22;5293;51.464;-2.566;2023-07-28T02:15:46;17.70;99.90
10492;DHT22;5293;51.464;-2.566;2023-07-28T02:18:12;17.80;99.90
10492;DHT22;5293;51.464;-2.566;2023-07-28T02:20:37;17.80;99.90
10492;DHT22;5293;51.464;-2.566;2023-07-28T02:23:04;17.90;99.90
10492;DHT22;5293;51.464;-2.566;2023-07-28T02:25:30;17.90;99.90
10492;DHT22;5293;51.464;-2.566;2023-07-28T02:27:56;17.90;99.90
10492;DHT22;5293;51.464;-2.566;2023-07-28T02:30:21;17.90;99.90
10492;DHT22;5293;51.464;-2.566;2023-07-28T02:32:47;17.90;99.90
10492;DHT22;5293;51.464;-2.566;2023-07-28T02:35:13;17.90;99.90
10492;DHT22;5293;51.464;-2.566;2023-07-28T02:37:39;17.90;99.90
10492;DHT22;5293;51.464;-2.566;2023-07-28T02:40:05;17.90;99.90
10492;DHT22;5293;51.464;-2.566;2023-07-28T02:42:31;18.00;99.90
10492;DHT22;5293;51.464;-2.566;2023-07-28T02:44:59;17.90;99.90
10492;DHT22;5293;51.464;-2.566;2023-07-28T02:47:24;18.00;99.90
10492;DHT22;5293;51.464;-2.566;2023-07-28T02:49:51;18.00;99.90
10492;DHT22;5293;51.464;-2.566;2023-07-28T02:52:16;18.00;99.90
10492;DHT22;5293;51.464;-2.566;2023-07-28T02:54:42;17.90;99.90
10492;DHT22;5293;51.464;-2.566;2023-07-28T02:57:07;17.90;99.90
10492;DHT22;5293;51.464;-2.566;2023-07-28T02:59:33;17.90;99.90
10492;DHT22;5293;51.464;-2.566;2023-07-28T03:01:59;17.80;99.90
10492;DHT22;5293;51.464;-2.566;2023-07-28T03:04:25;17.80;99.90
10492;DHT22;5293;51.464;-2.566;2023-07-28T03:06:50;17.80;99.90
10492;DHT22;5293;51.464;-2.566;2023-07-28T03:09:16;17.80;99.90
10492;DHT22;5293;51.464;-2.566;2023-07-28T03:11:42;17.90;99.90
10492;DHT22;5293;51.464;-2.566;2023-07-28T03:14:08;17.80;99.90
10492;DHT22;5293;51.464;-2.566;2023-07-28T03:16:34;17.70;99.90
10492;DHT22;5293;51.464;-2.566;2023-07-28T03:19:00;17.70;99.90
10492;DHT22;5293;51.464;-2.566;2023-07-28T03:21:29;17.80;99.90
10492;DHT22;5293;51.464;-2.566;2023-07-28T03:23:54;17.80;99.90
10492;DHT22;5293;51.464;-2.566;2023-07-28T03:26:20;17.70;99.90
10492;DHT22;5293;51.464;-2.566;2023-07-28T03:28:46;17.60;99.90
10492;DHT22;5293;51.464;-2.566;2023-07-28T03:31:12;17.70;99.90
10492;DHT22;5293;51.464;-2.566;2023-07-28T03:33:37;17.60;99.90
10492;DHT22;5293;51.464;-2.566;2023-07-28T03:36:03;17.70;99.90
10492;DHT22;5293;51.464;-2.566;2023-07-28T03:38:29;17.70;99.90
10492;DHT22;5293;51.464;-2.566;2023-07-28T03:40:54;17.60;99.90
10492;DHT22;5293;51.464;-2.566;2023-07-28T03:43:20;17.70;99.90
10492;DHT22;5293;51.464;-2.566;2023-07-28T03:45:46;17.60;99.90
10492;DHT22;5293;51.464;-2.566;2023-07-28T03:48:12;17.60;99.90
10492;DHT22;5293;51.464;-2.566;2023-07-28T03:50:37;17.60;99.90
10492;DHT22;5293;51.464;-2.566;2023-07-28T03:53:03;17.70;99.90
10492;DHT22;5293;51.464;-2.566;2023-07-28T03:55:29;17.70;99.90
10492;DHT22;5293;51.464;-2.566;2023-07-28T03:57:54;17.70;99.90
10492;DHT22;5293;51.464;-2.566;2023-07-28T04:00:20;17.80;99.90
10492;DHT22;5293;51.464;-2.566;2023-07-28T04:02:46;17.70;99.90
10492;DHT22;5293;51.464;-2.566;2023-07-28T04:05:11;17.70;99.90
10492;DHT22;5293;51.464;-2.566;2023-07-28T04:07:37;17.70;99.90
10492;DHT22;5293;51.464;-2.566;2023-07-28T04:10:04;17.70;99.90
10492;DHT22;5293;51.464;-2.566;2023-07-28T04:12:29;17.70;99.90
10492;DHT22;5293;51.464;-2.566;2023-07-28T04:14:55;17.70;99.90
10492;DHT22;5293;51.464;-2.566;2023-07-28T04:17:21;17.70;99.90
10492;DHT22;5293;51.464;-2.566;2023-07-28T04:19:46;17.70;99.90
10492;DHT22;5293;51.464;-2.566;2023-07-28T04:22:12;17.70;99.90
10492;DHT22;5293;51.464;-2.566;2023-07-28T04:24:38;17.60;99.90
10492;DHT22;5293;51.464;-2.566;2023-07-28T04:27:04;17.60;99.90
10492;DHT22;5293;51.464;-2.566;2023-07-28T04:29:30;17.60;99.90
10492;DHT22;5293;51.464;-2.566;2023-07-28T04:31:56;17.60;99.90
10492;DHT22;5293;51.464;-2.566;2023-07-28T04:34:21;17.60;99.90
10492;DHT22;5293;51.464;-2.566;2023-07-28T04:36:47;17.60;99.90
10492;DHT22;5293;51.464;-2.566;2023-07-28T04:39:13;17.60;99.90
10492;DHT22;5293;51.464;-2.566;2023-07-28T04:41:38;17.60;99.90
10492;DHT22;5293;51.464;-2.566;2023-07-28T04:44:04;17.70;99.90
10492;DHT22;5293;51.464;-2.566;2023-07-28T04:46:30;17.50;99.90
10492;DHT22;5293;51.464;-2.566;2023-07-28T04:48:56;17.50;99.90
10492;DHT22;5293;51.464;-2.566;2023-07-28T04:51:22;17.50;99.90
10492;DHT22;5293;51.464;-2.566;2023-07-28T04:53:47;17.40;99.90
10492;DHT22;5293;51.464;-2.566;2023-07-28T04:56:13;17.40;99.90
10492;DHT22;5293;51.464;-2.566;2023-07-28T04:58:39;17.50;99.90
10492;DHT22;5293;51.464;-2.566;2023-07-28T05:01:04;17.40;99.90
10492;DHT22;5293;51.464;-2.566;2023-07-28T05:03:30;17.50;99.90
10492;DHT22;5293;51.464;-2.566;2023-07-28T05:05:56;17.50;99.90
10492;DHT22;5293;51.464;-2.566;2023-07-28T05:08:22;17.50;99.90
10492;DHT22;5293;51.464;-2.566;2023-07-28T05:10:47;17.50;99.90
10492;DHT22;5293;51.464;-2.566;2023-07-28T05:13:13;17.50;99.90
10492;DHT22;5293;51.464;-2.566;2023-07-28T05:15:38;17.40;99.90
10492;DHT22;5293;51.464;-2.566;2023-07-28T05:18:04;17.50;99.90
10492;DHT22;5293;51.464;-2.566;2023-07-28T05:20:30;17.50;99.90
10492;DHT22;5293;51.464;-2.566;2023-07-28T05:22:56;17.40;99.90
10492;DHT22;5293;51.464;-2.566;2023-07-28T05:25:21;17.40;99.90
10492;DHT22;5293;51.464;-2.566;2023-07-28T05:27:47;17.40;99.90
10492;DHT22;5293;51.464;-2.566;2023-07-28T05:30:13;17.50;99.90
10492;DHT22;5293;51.464;-2.566;2023-07-28T05:32:39;17.50;99.90
10492;DHT22;5293;51.464;-2.566;2023-07-28T05:35:04;17.60;99.90
10492;DHT22;5293;51.464;-2.566;2023-07-28T05:37:30;17.50;99.90
10492;DHT22;5293;51.464;-2.566;2023-07-28T05:39:56;17.50;99.90
10492;DHT22;5293;51.464;-2.566;2023-07-28T05:42:21;17.60;99.90
10492;DHT22;5293;51.464;-2.566;2023-07-28T05:44:49;17.70;99.90
10492;DHT22;5293;51.464;-2.566;2023-07-28T05:47:17;17.70;99.90
10492;DHT22;5293;51.464;-2.566;2023-07-28T05:49:43;17.80;99.90
10492;DHT22;5293;51.464;-2.566;2023-07-28T05:52:08;17.70;99.90
10492;DHT22;5293;51.464;-2.566;2023-07-28T05:54:34;17.70;99.90
10492;DHT22;5293;51.464;-2.566;2023-07-28T05:56:59;17.70;99.90
10492;DHT22;5293;51.464;-2.566;2023-07-28T05:59:25;17.70;99.90
10492;DHT22;5293;51.464;-2.566;2023-07-28T06:01:51;17.70;99.90
10492;DHT22;5293;51.464;-2.566;2023-07-28T06:04:16;17.80;99.90
10492;DHT22;5293;51.464;-2.566;2023-07-28T06:06:42;17.80;99.90
10492;DHT22;5293;51.464;-2.566;2023-07-28T06:09:08;17.90;99.90
10492;DHT22;5293;51.464;-2.566;2023-07-28T06:11:33;18.00;99.90
10492;DHT22;5293;51.464;-2.566;2023-07-28T06:13:59;18.10;99.90
10492;DHT22;5293;51.464;-2.566;2023-07-28T06:16:25;18.10;99.90
10492;DHT22;5293;51.464;-2.566;2023-07-28T06:18:50;18.30;99.90
10492;DHT22;5293;51.464;-2.566;2023-07-28T06:21:16;18.20;99.90
10492;DHT22;5293;51.464;-2.566;2023-07-28T06:23:42;18.30;99.90
10492;DHT22;5293;51.464;-2.566;2023-07-28T06:26:07;18.40;99.90
10492;DHT22;5293;51.464;-2.566;2023-07-28T06:28:33;18.60;99.90
10492;DHT22;5293;51.464;-2.566;2023-07-28T06:30:59;18.70;99.90
10492;DHT22;5293;51.464;-2.566;2023-07-28T06:33:25;18.90;99.90
10492;DHT22;5293;51.464;-2.566;2023-07-28T06:35:51;18.90;99.90
10492;DHT22;5293;51.464;-2.566;2023-07-28T06:38:17;19.00;99.90
10492;DHT22;5293;51.464;-2.566;2023-07-28T06:40:43;19.00;99.90
10492;DHT22;5293;51.464;-2.566;2023-07-28T06:43:09;18.80;99.90
10492;DHT22;5293;51.464;-2.566;2023-07-28T06:45:34;18.80;99.90
10492;DHT22;5293;51.464;-2.566;2023-07-28T06:48:00;18.70;99.90
10492;DHT22;5293;51.464;-2.566;2023-07-28T06:50:26;18.70;99.90
10492;DHT22;5293;51.464;-2.566;2023-07-28T06:52:52;18.70;99.90
10492;DHT22;5293;51.464;-2.566;2023-07-28T06:55:17;18.70;99.90
10492;DHT22;5293;51.464;-2.566;2023-07-28T06:57:44;18.80;99.90
10492;DHT22;5293;51.464;-2.566;2023-07-28T07:00:10;18.80;99.90
10492;DHT22;5293;51.464;-2.566;2023-07-28T07:02:36;18.70;99.90
10492;DHT22;5293;51.464;-2.566;2023-07-28T07:05:02;18.80;99.90
10492;DHT22;5293;51.464;-2.566;2023-07-28T07:07:28;18.70;99.90
10492;DHT22;5293;51.464;-2.566;2023-07-28T07:09:54;18.70;99.90
10492;DHT22;5293;51.464;-2.566;2023-07-28T07:12:20;18.80;99.90
10492;DHT22;5293;51.464;-2.566;2023-07-28T07:14:47;18.80;99.90
10492;DHT22;5293;51.464;-2.566;2023-07-28T07:17:13;18.80;99.90
10492;DHT22;5293;51.464;-2.566;2023-07-28T07:19:38;18.80;99.90
10492;DHT22;5293;51.464;-2.566;2023-07-28T07:22:05;18.80;99.90
10492;DHT22;5293;51.464;-2.566;2023-07-28T07:24:31;18.80;99.90
10492;DHT22;5293;51.464;-2.566;2023-07-28T07:26:57;18.90;99.90
10492;DHT22;5293;51.464;-2.566;2023-07-28T07:29:22;19.00;99.90
10492;DHT22;5293;51.464;-2.566;2023-07-28T07:31:48;19.10;99.90
10492;DHT22;5293;51.464;-2.566;2023-07-28T07:34:14;19.30;99.90
10492;DHT22;5293;51.464;-2.566;2023-07-28T07:36:40;19.50;99.90
10492;DHT22;5293;51.464;-2.566;2023-07-28T07:39:06;19.50;99.90
10492;DHT22;5293;51.464;-2.566;2023-07-28T07:41:31;19.40;99.90
10492;DHT22;5293;51.464;-2.566;2023-07-28T07:43:57;19.40;99.90
10492;DHT22;5293;51.464;-2.566;2023-07-28T07:46:23;19.50;99.90
10492;DHT22;5293;51.464;-2.566;2023-07-28T07:48:49;19.60;99.90
10492;DHT22;5293;51.464;-2.566;2023-07-28T07:51:16;19.90;99.90
10492;DHT22;5293;51.464;-2.566;2023-07-28T07:53:42;20.10;99.90
10492;DHT22;5293;51.464;-2.566;2023-07-28T07:56:08;20.10;99.90
10492;DHT22;5293;51.464;-2.566;2023-07-28T07:58:35;20.30;99.90
10492;DHT22;5293;51.464;-2.566;2023-07-28T08:01:01;20.50;99.90
10492;DHT22;5293;51.464;-2.566;2023-07-28T08:03:26;20.60;99.90
10492;DHT22;5293;51.464;-2.566;2023-07-28T08:05:52;20.70;99.90
10492;DHT22;5293;51.464;-2.566;2023-07-28T08:08:18;20.80;99.90
10492;DHT22;5293;51.464;-2.566;2023-07-28T08:10:45;20.70;99.90
10492;DHT22;5293;51.464;-2.566;2023-07-28T08:13:11;20.60;99.90
10492;DHT22;5293;51.464;-2.566;2023-07-28T08:15:37;20.80;99.90
10492;DHT22;5293;51.464;-2.566;2023-07-28T08:18:02;20.80;99.90
10492;DHT22;5293;51.464;-2.566;2023-07-28T08:20:28;20.90;99.90
10492;DHT22;5293;51.464;-2.566;2023-07-28T08:22:54;20.90;99.90
10492;DHT22;5293;51.464;-2.566;2023-07-28T08:25:19;21.10;99.90
10492;DHT22;5293;51.464;-2.566;2023-07-28T08:27:45;21.20;99.90
10492;DHT22;5293;51.464;-2.566;2023-07-28T08:30:11;21.30;99.90
10492;DHT22;5293;51.464;-2.566;2023-07-28T08:32:37;21.50;99.90
10492;DHT22;5293;51.464;-2.566;2023-07-28T08:35:03;21.40;99.90
10492;DHT22;5293;51.464;-2.566;2023-07-28T08:37:29;21.30;99.90
10492;DHT22;5293;51.464;-2.566;2023-07-28T08:39:54;21.20;99.90
10492;DHT22;5293;51.464;-2.566;2023-07-28T08:42:21;21.30;99.90
10492;DHT22;5293;51.464;-2.566;2023-07-28T08:44:48;21.10;99.90
10492;DHT22;5293;51.464;-2.566;2023-07-28T08:47:17;21.00;99.90
10492;DHT22;5293;51.464;-2.566;2023-07-28T08:49:43;21.10;99.90
10492;DHT22;5293;51.464;-2.566;2023-07-28T08:52:09;21.00;99.90
10492;DHT22;5293;51.464;-2.566;2023-07-28T08:54:34;20.90;99.90
10492;DHT22;5293;51.464;-2.566;2023-07-28T08:57:00;21.00;99.90
10492;DHT22;5293;51.464;-2.566;2023-07-28T08:59:28;21.00;99.90
10492;DHT22;5293;51.464;-2.566;2023-07-28T09:01:55;20.90;99.90
10492;DHT22;5293;51.464;-2.566;2023-07-28T09:04:24;21.00;99.90
10492;DHT22;5293;51.464;-2.566;2023-07-28T09:06:51;20.90;99.90
10492;DHT22;5293;51.464;-2.566;2023-07-28T09:09:21;21.00;99.90
10492;DHT22;5293;51.464;-2.566;2023-07-28T09:11:52;21.00;99.90
10492;DHT22;5293;51.464;-2.566;2023-07-28T09:14:20;20.90;99.90
10492;DHT22;5293;51.464;-2.566;2023-07-28T09:16:47;20.80;99.90
10492;DHT22;5293;51.464;-2.566;2023-07-28T09:19:13;21.00;99.90
10492;DHT22;5293;51.464;-2.566;2023-07-28T09:21:41;21.20;99.90
10492;DHT22;5293;51.464;-2.566;2023-07-28T09:24:10;21.10;99.90
10492;DHT22;5293;51.464;-2.566;2023-07-28T09:26:46;21.00;99.90
10492;DHT22;5293;51.464;-2.566;2023-07-28T09:29:19;21.00;99.90
10492;DHT22;5293;51.464;-2.566;2023-07-28T09:31:46;21.00;99.90
10492;DHT22;5293;51.464;-2.566;2023-07-28T09:34:13;21.20;99.90
10492;DHT22;5293;51.464;-2.566;2023-07-28T09:36:48;21.20;99.90
10492;DHT22;5293;51.464;-2.566;2023-07-28T09:39:14;21.30;99.90
10492;DHT22;5293;51.464;-2.566;2023-07-28T09:41:40;21.40;99.90
10492;DHT22;5293;51.464;-2.566;2023-07-28T09:44:06;21.30;99.90
10492;DHT22;5293;51.464;-2.566;2023-07-28T09:46:34;21.40;99.90
10492;DHT22;5293;51.464;-2.566;2023-07-28T09:49:04;21.60;99.90
10492;DHT22;5293;51.464;-2.566;2023-07-28T09:51:31;21.90;99.90
10492;DHT22;5293;51.464;-2.566;2023-07-28T09:54:11;22.10;99.90
10492;DHT22;5293;51.464;-2.566;2023-07-28T09:56:38;22.20;99.90
10492;DHT22;5293;51.464;-2.566;2023-07-28T09:59:11;22.10;99.90
10492;DHT22;5293;51.464;-2.566;2023-07-28T10:01:41;22.20;99.90
10492;DHT22;5293;51.464;-2.566;2023-07-28T10:04:07;22.20;99.90
10492;DHT22;5293;51.464;-2.566;2023-07-28T10:06:33;22.10;99.90
10492;DHT22;5293;51.464;-2.566;2023-07-28T10:08:59;22.00;99.90
10492;DHT22;5293;51.464;-2.566;2023-07-28T10:11:25;22.00;99.90
10492;DHT22;5293;51.464;-2.566;2023-07-28T10:13:54;22.00;99.90
10492;DHT22;5293;51.464;-2.566;2023-07-28T10:16:29;21.90;99.90
10492;DHT22;5293;51.464;-2.566;2023-07-28T10:18:55;21.70;99.90
10492;DHT22;5293;51.464;-2.566;2023-07-28T10:21:21;21.50;99.90
10492;DHT22;5293;51.464;-2.566;2023-07-28T10:23:54;21.60;99.90
10492;DHT22;5293;51.464;-2.566;2023-07-28T10:26:40;22.00;99.90
10492;DHT22;5293;51.464;-2.566;2023-07-28T10:29:15;21.80;99.90
10492;DHT22;5293;51.464;-2.566;2023-07-28T10:31:54;22.00;99.90
10492;DHT22;5293;51.464;-2.566;2023-07-28T10:34:22;21.90;99.90
10492;DHT22;5293;51.464;-2.566;2023-07-28T10:36:57;21.90;99.90
10492;DHT22;5293;51.464;-2.566;2023-07-28T10:39:24;22.00;99.90
10492;DHT22;5293;51.464;-2.566;2023-07-28T10:44:27;22.20;99.90
10492;DHT22;5293;51.464;-2.566;2023-07-28T10:46:53;22.20;99.90
10492;DHT22;5293;51.464;-2.566;2023-07-28T10:49:19;22.30;99.90
10492;DHT22;5293;51.464;-2.566;2023-07-28T10:51:45;22.40;99.90
10492;DHT22;5293;51.464;-2.566;2023-07-28T10:54:12;22.70;99.90
10492;DHT22;5293;51.464;-2.566;2023-07-28T10:56:42;22.80;99.90
10492;DHT22;5293;51.464;-2.566;2023-07-28T10:59:08;23.00;99.90
10492;DHT22;5293;51.464;-2.566;2023-07-28T11:01:35;23.00;99.90
10492;DHT22;5293;51.464;-2.566;2023-07-28T11:04:16;23.00;99.90
10492;DHT22;5293;51.464;-2.566;2023-07-28T11:06:49;22.90;99.90
10492;DHT22;5293;51.464;-2.566;2023-07-28T11:09:17;23.00;99.90
10492;DHT22;5293;51.464;-2.566;2023-07-28T11:11:44;23.10;99.90
10492;DHT22;5293;51.464;-2.566;2023-07-28T11:14:10;23.10;99.90
10492;DHT22;5293;51.464;-2.566;2023-07-28T11:16:38;23.00;99.90
10492;DHT22;5293;51.464;-2.566;2023-07-28T11:19:09;22.80;99.90
10492;DHT22;5293;51.464;-2.566;2023-07-28T11:21:39;22.60;99.90
10492;DHT22;5293;51.464;-2.566;2023-07-28T11:24:09;22.50;99.90
10492;DHT22;5293;51.464;-2.566;2023-07-28T11:26:39;22.30;99.90
10492;DHT22;5293;51.464;-2.566;2023-07-28T11:29:05;22.10;99.90
10492;DHT22;5293;51.464;-2.566;2023-07-28T11:31:31;22.00;99.90
10492;DHT22;5293;51.464;-2.566;2023-07-28T11:33:58;22.00;99.90
10492;DHT22;5293;51.464;-2.566;2023-07-28T11:36:30;21.90;99.90
10492;DHT22;5293;51.464;-2.566;2023-07-28T11:39:00;21.80;99.90
10492;DHT22;5293;51.464;-2.566;2023-07-28T11:41:26;21.90;99.90
10492;DHT22;5293;51.464;-2.566;2023-07-28T11:43:53;22.00;99.90
10492;DHT22;5293;51.464;-2.566;2023-07-28T11:46:54;22.10;99.90
10492;DHT22;5293;51.464;-2.566;2023-07-28T11:49:21;22.10;99.90
10492;DHT22;5293;51.464;-2.566;2023-07-28T11:51:54;22.10;99.90
10492;DHT22;5293;51.464;-2.566;2023-07-28T11:54:24;22.30;99.90
10492;DHT22;5293;51.464;-2.566;2023-07-28T11:56:53;22.50;99.90
10492;DHT22;5293;51.464;-2.566;2023-07-28T11:59:20;22.80;99.90
10492;DHT22;5293;51.464;-2.566;2023-07-28T12:01:56;23.10;99.90
10492;DHT22;5293;51.464;-2.566;2023-07-28T12:04:40;23.30;99.90
10492;DHT22;5293;51.464;-2.566;2023-07-28T12:07:16;23.50;99.90
10492;DHT22;5293;51.464;-2.566;2023-07-28T12:09:48;23.40;99.90
10492;DHT22;5293;51.464;-2.566;2023-07-28T12:12:19;23.50;99.90
10492;DHT22;5293;51.464;-2.566;2023-07-28T12:14:45;23.50;99.90
10492;DHT22;5293;51.464;-2.566;2023-07-28T12:17:18;23.60;99.90
10492;DHT22;5293;51.464;-2.566;2023-07-28T12:20:02;23.50;99.90
10492;DHT22;5293;51.464;-2.566;2023-07-28T12:22:38;23.20;99.90
10492;DHT22;5293;51.464;-2.566;2023-07-28T12:25:05;23.20;99.90
10492;DHT22;5293;51.464;-2.566;2023-07-28T12:27:31;23.20;99.90
10492;DHT22;5293;51.464;-2.566;2023-07-28T12:29:57;23.30;99.90
10492;DHT22;5293;51.464;-2.566;2023-07-28T12:32:23;23.00;99.90
10492;DHT22;5293;51.464;-2.566;2023-07-28T12:34:49;22.80;99.90
10492;DHT22;5293;51.464;-2.566;2023-07-28T12:37:16;22.60;99.90
10492;DHT22;5293;51.464;-2.566;2023-07-28T12:39:42;22.60;99.90
10492;DHT22;5293;51.464;-2.566;2023-07-28T12:42:09;22.80;99.90
10492;DHT22;5293;51.464;-2.566;2023-07-28T12:44:36;23.00;99.90
10492;DHT22;5293;51.464;-2.566;2023-07-28T12:47:03;22.90;99.90
10492;DHT22;5293;51.464;-2.566;2023-07-28T12:49:29;22.90;99.90
10492;DHT22;5293;51.464;-2.566;2023-07-28T12:51:59;22.70;99.90
10492;DHT22;5293;51.464;-2.566;2023-07-28T12:54:25;23.00;99.90
10492;DHT22;5293;51.464;-2.566;2023-07-28T12:56:51;23.10;99.90
10492;DHT22;5293;51.464;-2.566;2023-07-28T12:59:17;23.40;99.90
10492;DHT22;5293;51.464;-2.566;2023-07-28T13:01:43;23.60;99.90
10492;DHT22;5293;51.464;-2.566;2023-07-28T13:04:09;23.50;99.90
10492;DHT22;5293;51.464;-2.566;2023-07-28T13:06:34;23.60;99.90
10492;DHT22;5293;51.464;-2.566;2023-07-28T13:09:02;23.70;99.90
10492;DHT22;5293;51.464;-2.566;2023-07-28T13:11:29;23.40;99.90
10492;DHT22;5293;51.464;-2.566;2023-07-28T13:13:54;23.30;99.90
10492;DHT22;5293;51.464;-2.566;2023-07-28T13:16:20;23.30;99.90
10492;DHT22;5293;51.464;-2.566;2023-07-28T13:18:47;23.30;99.90
10492;DHT22;5293;51.464;-2.566;2023-07-28T13:21:12;23.40;99.90
10492;DHT22;5293;51.464;-2.566;2023-07-28T13:23:39;23.30;99.90
10492;DHT22;5293;51.464;-2.566;2023-07-28T13:26:36;23.30;99.90
10492;DHT22;5293;51.464;-2.566;2023-07-28T13:29:02;23.50;99.90
10492;DHT22;5293;51.464;-2.566;2023-07-28T13:31:28;23.40;99.90
10492;DHT22;5293;51.464;-2.566;2023-07-28T13:33:54;23.50;99.90
10492;DHT22;5293;51.464;-2.566;2023-07-28T13:36:20;23.50;99.90
10492;DHT22;5293;51.464;-2.566;2023-07-28T13:38:45;23.40;99.90
10492;DHT22;5293;51.464;-2.566;2023-07-28T13:41:11;23.30;99.90
10492;DHT22;5293;51.464;-2.566;2023-07-28T13:43:37;23.30;99.90
10492;DHT22;5293;51.464;-2.566;2023-07-28T13:46:06;23.20;99.90
10492;DHT22;5293;51.464;-2.566;2023-07-28T13:48:32;22.90;99.90
10492;DHT22;5293;51.464;-2.566;2023-07-28T13:50:58;22.90;99.90
10492;DHT22;5293;51.464;-2.566;2023-07-28T13:53:27;23.00;99.90
10492;DHT22;5293;51.464;-2.566;2023-07-28T13:55:54;23.00;99.90
10492;DHT22;5293;51.464;-2.566;2023-07-28T13:58:20;23.10;99.90
10492;DHT22;5293;51.464;-2.566;2023-07-28T14:00:46;23.20;99.90
10492;DHT22;5293;51.464;-2.566;2023-07-28T14:03:12;23.00;99.90
10492;DHT22;5293;51.464;-2.566;2023-07-28T14:05:38;22.80;99.90
10492;DHT22;5293;51.464;-2.566;2023-07-28T14:08:04;22.50;99.90
10492;DHT22;5293;51.464;-2.566;2023-07-28T14:10:29;22.30;99.90
10492;DHT22;5293;51.464;-2.566;2023-07-28T14:12:57;22.30;99.90
10492;DHT22;5293;51.464;-2.566;2023-07-28T14:15:23;22.20;99.90
10492;DHT22;5293;51.464;-2.566;2023-07-28T14:17:49;22.20;99.90
10492;DHT22;5293;51.464;-2.566;2023-07-28T14:20:15;22.20;99.90
10492;DHT22;5293;51.464;-2.566;2023-07-28T14:22:40;22.20;99.90
10492;DHT22;5293;51.464;-2.566;2023-07-28T14:25:06;22.00;99.90
10492;DHT22;5293;51.464;-2.566;2023-07-28T14:27:32;21.90;99.90
10492;DHT22;5293;51.464;-2.566;2023-07-28T14:29:58;21.80;99.90
10492;DHT22;5293;51.464;-2.566;2023-07-28T14:32:23;21.70;99.90
10492;DHT22;5293;51.464;-2.566;2023-07-28T14:34:49;21.70;99.90
10492;DHT22;5293;51.464;-2.566;2023-07-28T14:37:14;21.80;99.90
10492;DHT22;5293;51.464;-2.566;2023-07-28T14:39:41;22.30;99.90
10492;DHT22;5293;51.464;-2.566;2023-07-28T14:42:06;22.60;99.90
10492;DHT22;5293;51.464;-2.566;2023-07-28T14:44:32;22.70;99.90
10492;DHT22;5293;51.464;-2.566;2023-07-28T14:46:58;22.90;99.90
10492;DHT22;5293;51.464;-2.566;2023-07-28T14:49:23;23.00;99.90
10492;DHT22;5293;51.464;-2.566;2023-07-28T14:51:53;23.10;99.90
10492;DHT22;5293;51.464;-2.566;2023-07-28T14:54:19;23.20;99.90
10492;DHT22;5293;51.464;-2.566;2023-07-28T14:56:45;23.20;99.90
10492;DHT22;5293;51.464;-2.566;2023-07-28T14:59:10;23.10;99.90
10492;DHT22;5293;51.464;-2.566;2023-07-28T15:01:36;23.00;99.90
10492;DHT22;5293;51.464;-2.566;2023-07-28T15:04:01;23.20;99.90
10492;DHT22;5293;51.464;-2.566;2023-07-28T15:06:30;23.30;99.90
10492;DHT22;5293;51.464;-2.566;2023-07-28T15:08:56;23.30;99.90
10492;DHT22;5293;51.464;-2.566;2023-07-28T15:11:22;23.30;99.90
10492;DHT22;5293;51.464;-2.566;2023-07-28T15:13:47;23.30;99.90
10492;DHT22;5293;51.464;-2.566;2023-07-28T15:16:13;23.30;99.90
10492;DHT22;5293;51.464;-2.566;2023-07-28T15:18:39;23.50;99.90
10492;DHT22;5293;51.464;-2.566;2023-07-28T15:21:04;23.60;99.90
10492;DHT22;5293;51.464;-2.566;2023-07-28T15:23:30;23.90;99.90
10492;DHT22;5293;51.464;-2.566;2023-07-28T15:25:55;23.80;99.90
10492;DHT22;5293;51.464;-2.566;2023-07-28T15:28:24;23.50;99.90
10492;DHT22;5293;51.464;-2.566;2023-07-28T15:30:50;23.20;99.90